Time;durP1;ratioP1;P1;durP2;ratioP2;P2;SDS_P1;SDS_P2;PMS_P1;PMS_P2;Temp;Humidity;BMP_temperature;BMP_pressure;BME280_temperature;BME280_humidity;BME280_pressure;Samples;Min_cycle;Max_cycle;Signal;HPM_P1;HPM_P2
2024/01/22 00:00:18;;;;;;;3.13;2.87;;;21.30;48.50;;;;;;5047386;28;20455;-66
2024/01/22 00:02:46;;;;;;;3.07;2.87;;;21.30;48.50;;;;;;5037116;28;20539;-67
2024/01/22 00:05:14;;;;;;;3.80;3.50;;;21.30;48.50;;;;;;5050548;28;20474;-67
2024/01/22 00:07:44;;;;;;;3.50;3.30;;;21.20;48.50;;;;;;5058932;28;20470;-67
2024/01/22 00:10:13;;;;;;;3.03;2.73;;;21.20;48.50;;;;;;5050009;28;20451;-67
2024/01/22 00:12:41;;;;;;;2.77;2.57;;;21.20;48.60;;;;;;5051587;28;20452;-67
2024/01/22 00:15:10;;;;;;;4.40;3.93;;;21.20;48.60;;;;;;5059930;28;20474;-67
2024/01/22 00:17:38;;;;;;;2.80;2.50;;;21.20;48.60;;;;;;5054606;28;20563;-66
2024/01/22 00:20:08;;;;;;;3.27;3.07;;;21.20;48.60;;;;;;5056683;28;20776;-66
2024/01/22 00:22:36;;;;;;;3.03;2.73;;;21.20;48.60;;;;;;5062617;28;20467;-66
2024/01/22 00:25:07;;;;;;;3.27;2.67;;;21.20;48.60;;;;;;5051236;28;20470;-67
2024/01/22 00:27:35;;;;;;;2.90;2.70;;;21.20;48.60;;;;;;5056262;28;20784;-66
2024/01/22 00:30:04;;;;;;;3.40;2.57;;;21.20;48.60;;;;;;5064999;28;20495;-67
2024/01/22 00:32:32;;;;;;;3.20;2.90;;;21.10;48.60;;;;;;5045675;28;20460;-67
2024/01/22 00:35:00;;;;;;;2.97;2.77;;;21.10;48.60;;;;;;5043391;28;20517;-67
2024/01/22 00:37:29;;;;;;;3.00;2.80;;;21.10;48.20;;;;;;5051352;28;20484;-67
2024/01/22 00:39:57;;;;;;;3.13;2.90;;;21.10;48.60;;;;;;5048069;28;20889;-67
2024/01/22 00:42:27;;;;;;;5.17;2.40;;;21.10;48.60;;;;;;5071337;28;20431;-67
2024/01/22 00:44:55;;;;;;;3.00;2.80;;;21.10;48.70;;;;;;5069204;28;21344;-66
2024/01/22 00:47:23;;;;;;;2.83;2.50;;;21.00;48.70;;;;;;5050905;28;20807;-67
2024/01/22 00:49:52;;;;;;;3.40;3.10;;;21.00;48.70;;;;;;5052821;28;20451;-67
2024/01/22 00:52:20;;;;;;;3.70;2.70;;;21.00;48.70;;;;;;5045738;28;20487;-67
2024/01/22 00:54:48;;;;;;;3.00;2.80;;;21.00;48.70;;;;;;5054728;28;20428;-66
2024/01/22 00:57:19;;;;;;;3.67;3.37;;;21.00;48.70;;;;;;5051879;28;20513;-67
2024/01/22 00:59:49;;;;;;;2.90;2.70;;;21.00;48.70;;;;;;5053089;28;20424;-67
2024/01/22 01:02:17;;;;;;;2.47;2.20;;;21.00;48.70;;;;;;5040243;28;20554;-67
2024/01/22 01:04:45;;;;;;;3.80;2.80;;;21.00;48.70;;;;;;5065317;28;20891;-67
2024/01/22 01:07:13;;;;;;;2.20;2.00;;;20.90;48.70;;;;;;5049402;28;20481;-67
2024/01/22 01:09:42;;;;;;;2.80;2.60;;;20.90;48.70;;;;;;5051116;28;20958;-67
2024/01/22 01:12:10;;;;;;;3.53;3.10;;;20.90;48.80;;;;;;5055897;28;20444;-67
2024/01/22 01:14:39;;;;;;;3.00;2.80;;;20.90;48.80;;;;;;5053694;28;20850;-67
2024/01/22 01:17:09;;;;;;;2.73;2.40;;;20.90;48.80;;;;;;5063185;28;20947;-67
2024/01/22 01:19:39;;;;;;;2.80;2.53;;;20.90;48.80;;;;;;5052691;28;21000;-67
2024/01/22 01:22:07;;;;;;;3.10;2.80;;;20.90;48.80;;;;;;5044682;28;20522;-67
2024/01/22 01:24:36;;;;;;;2.47;2.27;;;20.90;48.80;;;;;;5055904;28;20958;-66
2024/01/22 01:27:04;;;;;;;2.67;2.47;;;20.80;48.80;;;;;;5060902;28;20458;-66
2024/01/22 01:29:33;;;;;;;2.37;2.10;;;20.80;48.80;;;;;;5055828;28;20530;-66
2024/01/22 01:32:01;;;;;;;2.27;2.13;;;20.80;48.80;;;;;;5049297;28;20966;-67
2024/01/22 01:34:31;;;;;;;2.77;2.57;;;20.80;48.80;;;;;;5052430;28;20510;-67
2024/01/22 01:36:59;;;;;;;3.73;2.23;;;20.80;48.80;;;;;;5053385;28;20464;-67
2024/01/22 01:39:27;;;;;;;3.07;2.87;;;20.80;48.80;;;;;;5052782;28;20457;-67
2024/01/22 01:41:55;;;;;;;2.90;2.70;;;20.80;48.80;;;;;;5037267;28;20484;-67
2024/01/22 01:44:47;;;;;;;2.07;1.87;;;20.80;48.70;;;;;;5053806;28;20540;-67
2024/01/22 01:47:16;;;;;;;3.20;2.90;;;20.80;48.70;;;;;;5061758;28;20488;-67
2024/01/22 01:49:47;;;;;;;2.73;2.53;;;20.80;48.70;;;;;;5051176;28;20460;-67
2024/01/22 01:52:16;;;;;;;2.73;2.53;;;20.80;48.70;;;;;;5053547;28;20424;-66
2024/01/22 01:54:46;;;;;;;2.50;2.30;;;20.80;48.70;;;;;;5046461;28;20975;-67
2024/01/22 01:57:15;;;;;;;3.43;2.77;;;20.80;48.70;;;;;;5050880;28;20534;-66
2024/01/22 01:59:44;;;;;;;2.70;2.10;;;20.80;48.70;;;;;;5052718;28;20432;-67
2024/01/22 02:02:14;;;;;;;2.47;2.27;;;20.80;48.70;;;;;;5045375;28;20455;-67
2024/01/22 02:04:42;;;;;;;2.40;2.20;;;20.80;48.70;;;;;;5036058;28;20453;-67
2024/01/22 02:07:11;;;;;;;2.57;2.23;;;20.80;48.70;;;;;;5046879;28;20533;-67
2024/01/22 02:09:46;;;;;;;2.20;2.03;;;20.80;48.70;;;;;;5041999;28;20454;-66
2024/01/22 02:12:15;;;;;;;2.30;2.10;;;20.80;48.60;;;;;;5047953;28;20491;-66
2024/01/22 02:14:44;;;;;;;3.30;2.30;;;20.80;48.70;;;;;;5059293;28;20460;-67
2024/01/22 02:17:12;;;;;;;2.13;2.03;;;20.80;48.60;;;;;;5058651;28;20496;-66
2024/01/22 02:19:40;;;;;;;2.50;2.30;;;20.70;48.60;;;;;;5071717;28;21090;-66
2024/01/22 02:22:09;;;;;;;2.80;2.20;;;20.80;48.60;;;;;;5072967;28;20427;-66
2024/01/22 02:24:38;;;;;;;3.17;2.40;;;20.70;48.60;;;;;;5055264;28;20522;-66
2024/01/22 02:27:06;;;;;;;2.40;2.20;;;20.70;48.60;;;;;;5050494;28;20463;-67
2024/01/22 02:29:35;;;;;;;2.23;2.03;;;20.70;48.60;;;;;;5062725;28;20446;-67
2024/01/22 02:32:03;;;;;;;2.90;2.70;;;20.70;48.60;;;;;;5051783;28;20459;-66
2024/01/22 02:34:32;;;;;;;2.30;2.20;;;20.70;48.70;;;;;;5035299;28;20811;-66
2024/01/22 02:37:00;;;;;;;2.60;2.40;;;20.70;48.50;;;;;;5042125;28;20456;-66
2024/01/22 02:39:29;;;;;;;2.80;2.60;;;20.70;48.30;;;;;;5051690;28;20975;-67
2024/01/22 02:41:59;;;;;;;2.40;2.10;;;20.60;48.20;;;;;;5052377;28;20523;-67
2024/01/22 02:44:27;;;;;;;2.07;1.93;;;20.60;48.70;;;;;;5072872;28;20443;-67
2024/01/22 02:46:55;;;;;;;2.00;1.90;;;20.60;48.50;;;;;;5045736;28;20463;-67
2024/01/22 02:49:24;;;;;;;2.73;2.53;;;20.60;48.80;;;;;;5051479;28;20935;-66
2024/01/22 02:51:52;;;;;;;2.67;2.47;;;20.50;48.20;;;;;;5047823;28;20451;-66
2024/01/22 02:54:20;;;;;;;2.77;2.33;;;20.50;48.40;;;;;;5062187;28;20527;-67
2024/01/22 02:56:49;;;;;;;2.77;2.57;;;20.50;48.40;;;;;;5052443;28;20453;-67
2024/01/22 02:59:19;;;;;;;2.80;2.37;;;20.40;48.80;;;;;;5068076;28;20794;-67
2024/01/22 03:01:47;;;;;;;1.90;1.80;;;20.40;48.70;;;;;;5041210;28;20459;-67
2024/01/22 03:04:16;;;;;;;2.20;2.03;;;20.40;48.90;;;;;;5051953;28;20451;-67
2024/01/22 03:06:44;;;;;;;3.00;2.60;;;20.40;49.00;;;;;;5044023;28;20475;-67
2024/01/22 03:09:15;;;;;;;2.60;2.20;;;20.40;49.00;;;;;;5050844;28;20459;-67
2024/01/22 03:11:43;;;;;;;2.40;2.20;;;20.40;49.00;;;;;;5050647;28;20447;-67
2024/01/22 03:14:12;;;;;;;3.33;1.80;;;20.40;49.00;;;;;;5050641;28;21288;-67
2024/01/22 03:16:41;;;;;;;2.90;2.70;;;20.40;49.00;;;;;;5051937;28;20434;-67
2024/01/22 03:19:09;;;;;;;2.33;2.13;;;20.40;49.00;;;;;;5047277;28;20461;-66
2024/01/22 03:21:38;;;;;;;2.23;2.10;;;20.40;49.00;;;;;;5071317;28;20446;-66
2024/01/22 03:24:06;;;;;;;2.30;2.10;;;20.40;49.00;;;;;;5052520;28;20444;-66
2024/01/22 03:26:34;;;;;;;2.47;2.27;;;20.40;48.90;;;;;;5058477;28;20463;-66
2024/01/22 03:29:03;;;;;;;1.80;1.70;;;20.40;49.00;;;;;;5050647;28;21072;-66
2024/01/22 03:31:32;;;;;;;1.90;1.80;;;20.40;49.00;;;;;;5048716;28;20579;-66
2024/01/22 03:34:02;;;;;;;1.80;1.70;;;20.40;49.00;;;;;;5049146;28;20544;-66
2024/01/22 03:36:31;;;;;;;2.37;2.17;;;20.40;48.90;;;;;;5049128;28;20462;-66
2024/01/22 03:38:59;;;;;;;2.33;2.13;;;20.40;49.00;;;;;;5045469;28;20454;-67
2024/01/22 03:41:27;;;;;;;1.97;1.87;;;20.30;48.70;;;;;;5050539;28;20471;-67
2024/01/22 03:43:56;;;;;;;2.13;1.93;;;20.30;48.90;;;;;;5056423;28;20478;-67
2024/01/22 03:46:24;;;;;;;2.37;2.17;;;20.30;48.90;;;;;;5059469;28;20520;-67
2024/01/22 03:48:53;;;;;;;4.70;2.73;;;20.30;49.00;;;;;;5052230;28;20466;-67
2024/01/22 03:51:22;;;;;;;1.80;1.70;;;20.30;49.00;;;;;;5042818;28;20455;-66
2024/01/22 03:53:51;;;;;;;2.00;1.90;;;20.30;49.00;;;;;;5038342;28;20485;-66
2024/01/22 03:56:21;;;;;;;1.93;1.80;;;20.30;49.00;;;;;;5055093;28;20782;-66
2024/01/22 03:58:49;;;;;;;2.00;1.90;;;20.30;49.00;;;;;;5051257;28;20466;-66
2024/01/22 04:01:21;;;;;;;2.17;2.07;;;20.30;48.90;;;;;;5046738;28;20466;-67
2024/01/22 04:03:50;;;;;;;2.47;2.20;;;20.30;49.00;;;;;;5044129;28;20494;-66
2024/01/22 04:06:19;;;;;;;1.93;1.77;;;20.30;49.00;;;;;;5051065;28;20446;-66
2024/01/22 04:08:48;;;;;;;1.80;1.70;;;20.30;48.80;;;;;;5036522;28;20480;-67
2024/01/22 04:11:17;;;;;;;2.17;2.00;;;20.30;48.80;;;;;;5044553;28;20455;-67
2024/01/22 04:13:45;;;;;;;2.10;2.00;;;20.30;49.00;;;;;;5060348;28;20500;-67
2024/01/22 04:16:14;;;;;;;2.27;2.07;;;20.20;49.00;;;;;;5070847;28;20499;-67
2024/01/22 04:18:43;;;;;;;2.50;2.10;;;20.20;48.80;;;;;;5062659;28;21113;-67
2024/01/22 04:21:12;;;;;;;2.40;2.20;;;20.20;48.60;;;;;;5065315;28;20497;-67
2024/01/22 04:23:40;;;;;;;2.40;2.20;;;20.20;48.70;;;;;;5052030;28;20482;-67
2024/01/22 04:26:10;;;;;;;2.20;2.00;;;20.20;48.90;;;;;;5046430;28;20459;-67
2024/01/22 04:28:38;;;;;;;2.40;2.20;;;20.20;48.70;;;;;;5054319;28;20521;-67
2024/01/22 04:31:07;;;;;;;2.40;2.20;;;20.20;48.30;;;;;;5058989;28;20524;-67
2024/01/22 04:33:35;;;;;;;2.40;2.20;;;20.20;47.90;;;;;;5050938;28;20451;-67
2024/01/22 04:36:04;;;;;;;2.63;2.43;;;20.20;47.90;;;;;;5050371;28;20457;-67
2024/01/22 04:38:32;;;;;;;2.80;2.60;;;20.30;48.20;;;;;;5051660;28;20521;-67
2024/01/22 04:41:01;;;;;;;2.90;2.70;;;20.30;48.40;;;;;;5048873;28;20526;-67
2024/01/22 04:43:30;;;;;;;2.60;2.40;;;20.30;48.00;;;;;;5044957;28;20482;-67
2024/01/22 04:45:58;;;;;;;2.30;2.07;;;20.40;48.40;;;;;;5060639;28;20450;-67
2024/01/22 04:48:27;;;;;;;2.77;2.57;;;20.40;48.30;;;;;;5053389;28;20557;-67
2024/01/22 04:50:55;;;;;;;3.33;2.50;;;20.40;47.70;;;;;;5051815;28;20487;-67
2024/01/22 04:53:23;;;;;;;2.10;2.00;;;20.50;47.90;;;;;;5042906;28;20453;-67
2024/01/22 04:55:51;;;;;;;2.50;2.27;;;20.50;48.00;;;;;;5055804;28;20946;-67
2024/01/22 04:58:20;;;;;;;2.70;2.50;;;20.60;47.90;;;;;;5053467;28;20454;-67
2024/01/22 05:00:49;;;;;;;3.17;2.80;;;20.60;48.00;;;;;;5047980;28;20521;-67
2024/01/22 05:03:18;;;;;;;2.57;2.37;;;20.70;47.60;;;;;;5058092;28;20546;-67
2024/01/22 05:05:46;;;;;;;2.90;2.50;;;20.70;47.30;;;;;;5057478;28;20454;-67
2024/01/22 05:08:14;;;;;;;2.70;2.50;;;20.70;47.60;;;;;;5054527;28;20514;-67
2024/01/22 05:10:42;;;;;;;4.67;3.03;;;20.80;47.20;;;;;;5052590;28;20854;-67
2024/01/22 05:13:11;;;;;;;3.50;2.30;;;20.80;47.30;;;;;;5054581;28;20474;-67
2024/01/22 05:15:39;;;;;;;3.13;2.80;;;20.90;47.40;;;;;;5052752;28;20551;-67
2024/01/22 05:18:09;;;;;;;2.80;2.57;;;21.00;47.80;;;;;;5061257;28;20455;-67
2024/01/22 05:20:37;;;;;;;3.00;2.70;;;21.00;47.10;;;;;;5048879;28;20459;-67
2024/01/22 05:23:05;;;;;;;2.50;2.30;;;21.00;46.80;;;;;;5043762;28;20538;-67
2024/01/22 05:25:34;;;;;;;2.57;2.37;;;21.10;46.70;;;;;;5046157;28;20946;-65
2024/01/22 05:28:02;;;;;;;2.53;2.33;;;21.10;47.30;;;;;;5060309;28;20467;-65
2024/01/22 05:30:30;;;;;;;3.90;2.97;;;21.20;47.10;;;;;;5053850;28;20484;-66
2024/01/22 05:32:59;;;;;;;5.53;2.23;;;21.20;46.60;;;;;;5065452;28;20522;-66
2024/01/22 05:35:28;;;;;;;3.50;2.90;;;21.20;47.20;;;;;;5051014;28;20459;-66
2024/01/22 05:37:56;;;;;;;2.47;2.27;;;21.20;47.10;;;;;;5052384;28;20455;-66
2024/01/22 05:40:25;;;;;;;2.73;2.53;;;21.20;46.70;;;;;;5048803;28;20469;-67
2024/01/22 05:42:53;;;;;;;2.87;2.47;;;21.20;46.50;;;;;;5052333;28;20454;-67
2024/01/22 05:45:21;;;;;;;3.00;2.37;;;21.20;46.60;;;;;;5046735;28;20814;-67
2024/01/22 05:47:50;;;;;;;2.30;2.10;;;21.10;46.50;;;;;;5048340;28;20471;-67
2024/01/22 05:50:18;;;;;;;2.80;2.60;;;21.10;46.50;;;;;;5039695;28;20963;-67
2024/01/22 05:52:48;;;;;;;3.17;2.60;;;21.00;46.50;;;;;;5042432;28;20538;-67
2024/01/22 05:55:16;;;;;;;3.13;2.80;;;20.90;46.60;;;;;;5056397;28;20475;-67
2024/01/22 05:57:47;;;;;;;2.73;2.40;;;20.90;46.70;;;;;;5053165;28;20546;-67
2024/01/22 06:00:18;;;;;;;3.53;2.70;;;20.90;46.80;;;;;;5050757;28;20467;-67
2024/01/22 06:02:47;;;;;;;2.47;2.27;;;20.80;46.90;;;;;;5054879;28;20451;-68
2024/01/22 06:05:15;;;;;;;3.27;2.70;;;20.70;46.90;;;;;;5059770;28;20451;-67
2024/01/22 06:07:43;;;;;;;3.30;2.60;;;20.70;47.20;;;;;;5052600;28;20488;-67
2024/01/22 06:10:13;;;;;;;3.00;2.50;;;20.70;47.40;;;;;;5066273;28;20865;-67
2024/01/22 06:12:42;;;;;;;2.10;2.00;;;20.60;47.50;;;;;;5056032;28;20467;-67
2024/01/22 06:15:10;;;;;;;2.80;2.40;;;20.60;47.60;;;;;;5055998;28;20458;-66
2024/01/22 06:17:38;;;;;;;2.80;2.60;;;20.60;47.80;;;;;;5040877;28;20473;-67
2024/01/22 06:20:09;;;;;;;3.67;2.57;;;20.70;47.90;;;;;;5050225;28;21235;-66
2024/01/22 06:22:37;;;;;;;2.47;2.27;;;20.70;48.00;;;;;;5048782;28;20530;-67
2024/01/22 06:25:07;;;;;;;2.40;2.20;;;20.70;48.10;;;;;;5049850;28;20463;-67
2024/01/22 06:27:36;;;;;;;3.13;2.70;;;20.70;47.80;;;;;;5049846;28;20449;-67
2024/01/22 06:30:06;;;;;;;2.43;2.20;;;20.80;47.90;;;;;;5048979;28;20466;-66
2024/01/22 06:32:35;;;;;;;3.40;2.80;;;20.80;47.90;;;;;;5044660;28;20459;-66
2024/01/22 06:35:04;;;;;;;2.37;2.23;;;20.80;47.80;;;;;;5047821;28;20463;-67
2024/01/22 06:37:34;;;;;;;2.90;2.40;;;20.90;48.00;;;;;;5047342;28;20517;-66
2024/01/22 06:40:02;;;;;;;4.37;3.00;;;20.90;47.70;;;;;;5048319;28;20473;-66
2024/01/22 06:42:31;;;;;;;3.30;2.80;;;20.80;47.60;;;;;;5045347;28;21617;-66
2024/01/22 06:45:09;;;;;;;2.93;2.20;;;20.90;47.50;;;;;;5048871;28;20449;-66
2024/01/22 06:47:37;;;;;;;7.73;2.80;;;20.80;47.40;;;;;;5045833;28;20459;-66
2024/01/22 06:50:07;;;;;;;6.40;3.10;;;20.80;47.20;;;;;;5039695;28;20463;-66
2024/01/22 06:52:36;;;;;;;3.30;3.00;;;20.80;47.00;;;;;;5077945;28;20806;-66
2024/01/22 06:55:07;;;;;;;3.30;3.00;;;20.80;46.90;;;;;;5051982;28;20433;-67
2024/01/22 06:57:35;;;;;;;2.97;2.67;;;20.80;46.70;;;;;;5051881;28;20523;-66
2024/01/22 07:00:07;;;;;;;3.77;3.30;;;20.80;46.60;;;;;;5051076;28;20440;-67
2024/01/22 07:02:38;;;;;;;4.17;3.10;;;20.70;46.60;;;;;;5063757;28;20998;-66
2024/01/22 07:05:08;;;;;;;2.70;2.50;;;20.70;47.00;;;;;;5049834;28;20437;-66
2024/01/22 07:07:37;;;;;;;3.57;2.60;;;20.80;46.90;;;;;;5041701;28;20515;-66
2024/01/22 07:10:07;;;;;;;3.60;2.70;;;20.80;47.40;;;;;;5047894;28;20537;-66
2024/01/22 07:12:36;;;;;;;3.03;2.50;;;20.80;47.00;;;;;;5049594;28;20490;-66
2024/01/22 07:15:05;;;;;;;2.40;2.20;;;20.80;47.30;;;;;;5047728;28;20432;-66
2024/01/22 07:17:33;;;;;;;2.40;2.20;;;20.90;47.30;;;;;;5050266;28;20513;-66
2024/01/22 07:20:03;;;;;;;3.30;2.53;;;20.90;47.30;;;;;;5047449;28;20898;-66
2024/01/22 07:22:32;;;;;;;3.23;2.40;;;20.90;47.50;;;;;;5045929;28;20462;-66
2024/01/22 07:25:00;;;;;;;4.10;2.40;;;20.90;47.00;;;;;;5049373;28;20800;-66
2024/01/22 07:27:28;;;;;;;4.23;2.30;;;20.90;47.20;;;;;;5043412;28;20943;-66
2024/01/22 07:29:57;;;;;;;3.40;2.70;;;20.90;47.30;;;;;;5047944;28;20855;-66
2024/01/22 07:32:26;;;;;;;4.00;2.50;;;20.90;47.50;;;;;;5048717;28;20459;-66
2024/01/22 07:34:54;;;;;;;2.10;1.90;;;20.90;47.50;;;;;;5049244;28;20453;-66
2024/01/22 07:37:24;;;;;;;2.10;1.83;;;20.90;47.60;;;;;;5047495;28;20455;-66
2024/01/22 07:39:52;;;;;;;2.80;2.60;;;21.00;47.80;;;;;;5046342;28;20998;-66
2024/01/22 07:42:20;;;;;;;2.67;2.47;;;21.00;47.80;;;;;;5044061;28;20476;-66
2024/01/22 07:44:48;;;;;;;2.20;2.03;;;21.00;47.10;;;;;;5049466;28;20893;-66
2024/01/22 07:47:17;;;;;;;2.80;2.60;;;20.90;47.40;;;;;;5051299;28;20477;-66
2024/01/22 07:49:47;;;;;;;2.30;2.07;;;20.90;47.40;;;;;;5049608;28;20468;-66
2024/01/22 07:52:16;;;;;;;3.23;2.73;;;20.90;47.60;;;;;;5051028;28;20529;-66
2024/01/22 07:54:45;;;;;;;3.23;2.67;;;20.90;47.20;;;;;;5047308;28;20776;-67
2024/01/22 07:57:14;;;;;;;3.70;2.57;;;20.90;47.40;;;;;;5044839;28;20960;-66
2024/01/22 07:59:43;;;;;;;2.47;2.37;;;20.90;47.00;;;;;;5050766;28;20446;-66
2024/01/22 08:02:11;;;;;;;2.00;1.90;;;20.90;47.00;;;;;;5045910;28;20461;-66
2024/01/22 08:04:39;;;;;;;2.70;2.50;;;20.90;47.40;;;;;;5048500;28;20452;-67
2024/01/22 08:07:08;;;;;;;2.97;2.77;;;20.90;47.00;;;;;;5051035;28;20467;-66
2024/01/22 08:09:36;;;;;;;3.50;2.50;;;20.90;47.00;;;;;;5050621;28;20486;-66
2024/01/22 08:12:06;;;;;;;2.37;1.97;;;21.00;46.90;;;;;;5051062;28;20431;-66
2024/01/22 08:14:35;;;;;;;2.97;2.03;;;21.00;47.20;;;;;;5041354;28;20939;-66
2024/01/22 08:17:04;;;;;;;2.40;1.87;;;21.00;47.20;;;;;;5050802;28;20453;-66
2024/01/22 08:19:34;;;;;;;2.40;2.20;;;21.00;47.50;;;;;;5042705;28;20939;-66
2024/01/22 08:22:03;;;;;;;2.83;2.60;;;21.00;47.20;;;;;;5047599;28;21963;-66
2024/01/22 08:24:32;;;;;;;2.90;2.20;;;21.00;47.30;;;;;;5038481;28;20460;-66
2024/01/22 08:27:01;;;;;;;2.37;1.97;;;21.00;47.70;;;;;;5048563;28;20950;-66
2024/01/22 08:29:30;;;;;;;2.30;2.00;;;21.10;47.70;;;;;;5051206;28;20471;-66
2024/01/22 08:31:59;;;;;;;4.50;2.40;;;21.10;47.70;;;;;;5045622;28;20517;-66
2024/01/22 08:34:27;;;;;;;2.17;1.97;;;21.10;47.70;;;;;;5048101;28;20790;-66
2024/01/22 08:36:55;;;;;;;2.00;1.80;;;21.10;47.70;;;;;;5044373;28;20457;-66
2024/01/22 08:39:24;;;;;;;3.70;2.40;;;21.10;47.60;;;;;;5049977;28;20461;-66
2024/01/22 08:41:52;;;;;;;1.87;1.77;;;21.10;47.70;;;;;;5030882;28;20424;-66
2024/01/22 08:44:21;;;;;;;2.63;2.30;;;21.10;47.70;;;;;;5030990;28;20515;-66
2024/01/22 08:46:53;;;;;;;2.33;1.93;;;21.10;47.70;;;;;;5031097;28;20437;-66
2024/01/22 08:49:22;;;;;;;2.30;2.10;;;21.10;47.70;;;;;;5047766;28;20463;-66
2024/01/22 08:51:51;;;;;;;2.10;1.90;;;21.10;47.70;;;;;;5039381;28;20474;-66
2024/01/22 08:54:19;;;;;;;3.10;2.10;;;21.10;47.70;;;;;;5038572;28;20455;-66
2024/01/22 08:56:47;;;;;;;2.13;1.93;;;21.10;47.60;;;;;;5039110;28;20468;-66
2024/01/22 08:59:16;;;;;;;2.63;2.43;;;21.10;47.20;;;;;;5047072;28;20445;-66
2024/01/22 09:01:44;;;;;;;2.27;2.07;;;21.10;47.00;;;;;;5047727;28;20444;-66
2024/01/22 09:04:14;;;;;;;1.73;1.63;;;21.10;47.00;;;;;;5044080;28;20542;-66
2024/01/22 09:06:43;;;;;;;2.67;2.37;;;21.10;47.00;;;;;;5034732;28;20796;-66
2024/01/22 09:09:11;;;;;;;2.60;1.90;;;21.10;47.20;;;;;;5046048;28;20477;-66
2024/01/22 09:11:39;;;;;;;2.57;1.60;;;21.20;47.10;;;;;;5046344;28;20845;-67
2024/01/22 09:14:08;;;;;;;2.50;2.30;;;21.20;47.40;;;;;;5045264;28;20887;-66
2024/01/22 09:16:36;;;;;;;3.37;2.40;;;21.20;47.10;;;;;;5047140;28;21204;-66
2024/01/22 09:19:04;;;;;;;2.40;2.20;;;21.20;47.70;;;;;;5050075;28;20464;-66
2024/01/22 09:21:36;;;;;;;1.93;1.80;;;21.30;47.40;;;;;;5034828;28;20444;-66
2024/01/22 09:24:05;;;;;;;2.37;1.70;;;21.30;47.50;;;;;;5034135;28;20440;-66
2024/01/22 09:26:33;;;;;;;2.17;2.00;;;21.30;47.60;;;;;;5034445;28;20794;-66
2024/01/22 09:29:03;;;;;;;2.50;2.30;;;21.30;47.50;;;;;;5047651;28;20459;-66
2024/01/22 09:31:31;;;;;;;2.20;2.03;;;21.30;47.10;;;;;;5052100;28;20478;-66
2024/01/22 09:33:59;;;;;;;4.40;2.40;;;21.30;47.60;;;;;;5035774;28;20466;-67
2024/01/22 09:36:29;;;;;;;2.20;2.00;;;21.30;47.40;;;;;;5049617;28;20843;-67
2024/01/22 09:38:58;;;;;;;2.63;2.43;;;21.30;47.40;;;;;;5048615;28;20447;-67
2024/01/22 09:41:27;;;;;;;3.43;2.60;;;21.30;47.30;;;;;;5053110;28;20440;-67
2024/01/22 09:43:56;;;;;;;2.67;1.97;;;21.20;47.20;;;;;;5048451;28;20460;-67
2024/01/22 09:46:27;;;;;;;4.30;3.43;;;21.20;47.20;;;;;;5049909;28;21327;-67
2024/01/22 09:48:55;;;;;;;2.97;1.80;;;21.20;47.30;;;;;;5044237;28;20460;-70
2024/01/22 09:51:24;;;;;;;2.30;2.10;;;21.10;47.40;;;;;;5038335;28;20843;-70
2024/01/22 09:53:53;;;;;;;2.30;1.90;;;21.10;48.00;;;;;;5041299;28;20471;-69
2024/01/22 09:56:23;;;;;;;5.37;2.17;;;21.10;48.50;;;;;;5048484;28;20511;-69
2024/01/22 09:58:55;;;;;;;2.07;1.87;;;21.20;48.90;;;;;;5048066;28;20462;-70
2024/01/22 10:01:24;;;;;;;4.00;1.60;;;21.20;48.90;;;;;;5048850;28;20456;-69
2024/01/22 10:03:53;;;;;;;3.50;2.33;;;21.30;49.10;;;;;;5045786;28;20447;-69
2024/01/22 10:06:21;;;;;;;2.03;1.60;;;21.40;49.40;;;;;;5045288;28;20797;-71
2024/01/22 10:08:57;;;;;;;3.00;1.80;;;21.40;49.40;;;;;;5047896;28;20836;-70
2024/01/22 10:11:27;;;;;;;4.20;1.93;;;21.50;49.60;;;;;;5049497;28;20472;-70
2024/01/22 10:13:56;;;;;;;2.90;2.30;;;21.60;49.60;;;;;;5044832;28;20465;-70
2024/01/22 10:16:26;;;;;;;2.03;1.90;;;21.70;49.20;;;;;;5048393;28;20850;-70
2024/01/22 10:18:59;;;;;;;1.83;1.70;;;21.80;49.30;;;;;;5045859;28;20487;-70
2024/01/22 10:21:28;;;;;;;2.80;1.80;;;21.80;48.90;;;;;;5043308;28;20460;-70
2024/01/22 10:23:57;;;;;;;2.70;1.70;;;21.80;49.10;;;;;;5045051;28;20478;-71
2024/01/22 10:26:27;;;;;;;3.03;2.33;;;21.80;48.90;;;;;;5045118;28;20987;-71
2024/01/22 10:29:12;;;;;;;3.27;1.90;;;21.80;48.70;;;;;;5043850;28;20470;-72
2024/01/22 10:31:54;;;;;;;2.07;1.87;;;21.80;48.60;;;;;;5043100;28;20485;-72
2024/01/22 10:34:24;;;;;;;1.77;1.50;;;21.80;49.00;;;;;;5060829;28;20549;-71
2024/01/22 10:37:06;;;;;;;2.80;2.10;;;21.80;49.10;;;;;;5046084;28;20537;-70
2024/01/22 10:39:35;;;;;;;4.53;2.00;;;21.80;49.20;;;;;;5045507;28;20462;-71
2024/01/22 10:42:13;;;;;;;2.63;2.10;;;21.80;49.20;;;;;;5043369;28;20511;-71
2024/01/22 10:44:43;;;;;;;6.40;2.50;;;21.70;49.20;;;;;;5045763;28;20469;-69
2024/01/22 10:47:14;;;;;;;3.57;2.40;;;21.70;49.40;;;;;;5045755;28;20453;-69
2024/01/22 10:49:44;;;;;;;2.50;2.03;;;21.70;49.40;;;;;;5046668;28;20482;-71
2024/01/22 10:52:13;;;;;;;2.50;2.10;;;21.70;49.50;;;;;;5048324;28;20474;-72
2024/01/22 10:54:41;;;;;;;3.87;1.77;;;21.70;49.50;;;;;;5043977;28;20552;-70
2024/01/22 10:57:16;;;;;;;5.40;2.00;;;21.70;49.50;;;;;;5046143;28;20455;-70
2024/01/22 10:59:48;;;;;;;2.67;2.20;;;21.80;49.30;;;;;;5045417;28;20447;-71
2024/01/22 11:02:23;;;;;;;4.40;1.80;;;21.80;49.40;;;;;;5049059;28;20466;-70
2024/01/22 11:04:58;;;;;;;2.80;1.90;;;21.90;49.20;;;;;;5047391;28;20503;-72
2024/01/22 11:07:29;;;;;;;3.07;2.10;;;22.00;49.00;;;;;;5048006;28;20562;-70
2024/01/22 11:09:59;;;;;;;2.20;2.00;;;22.10;49.00;;;;;;5046283;28;21260;-72
2024/01/22 11:12:40;;;;;;;3.53;1.77;;;22.30;49.20;;;;;;5046754;28;20460;-72
2024/01/22 11:15:10;;;;;;;3.30;2.17;;;22.30;49.10;;;;;;5045121;28;20535;-70
2024/01/22 11:17:38;;;;;;;2.30;1.67;;;22.40;48.70;;;;;;5046128;28;20480;-70
2024/01/22 11:20:14;;;;;;;2.27;2.07;;;22.40;48.90;;;;;;5044866;28;20464;-67
2024/01/22 11:22:43;;;;;;;2.70;2.50;;;22.40;48.80;;;;;;5046075;28;20458;-68
2024/01/22 11:25:13;;;;;;;7.07;2.60;;;22.40;48.30;;;;;;5049623;28;20565;-67
2024/01/22 11:27:45;;;;;;;2.20;1.87;;;22.30;48.40;;;;;;5051400;28;20465;-67
2024/01/22 11:30:28;;;;;;;2.40;2.17;;;22.30;48.20;;;;;;5042468;28;20461;-67
2024/01/22 11:32:57;;;;;;;1.73;1.63;;;22.20;48.20;;;;;;5044506;28;20544;-67
2024/01/22 11:35:37;;;;;;;2.10;2.00;;;22.20;48.20;;;;;;5050052;28;20454;-67
2024/01/22 11:38:11;;;;;;;2.33;1.73;;;22.10;48.30;;;;;;5051376;28;20516;-67
2024/01/22 11:40:49;;;;;;;1.90;1.77;;;22.10;48.30;;;;;;5043876;28;20464;-68
2024/01/22 11:43:21;;;;;;;2.50;1.93;;;22.00;48.20;;;;;;5051862;28;20449;-67
2024/01/22 11:45:53;;;;;;;2.10;1.90;;;22.00;48.20;;;;;;5045304;28;20523;-67
2024/01/22 11:48:26;;;;;;;1.60;1.50;;;21.90;48.50;;;;;;5051211;28;20499;-67
2024/01/22 11:50:59;;;;;;;3.13;2.13;;;21.90;48.30;;;;;;5044367;28;21049;-67
2024/01/22 11:53:28;;;;;;;1.63;1.53;;;21.80;48.30;;;;;;5051781;28;20929;-67
2024/01/22 11:56:05;;;;;;;1.93;1.60;;;21.80;48.30;;;;;;5040785;28;20459;-67
2024/01/22 11:58:35;;;;;;;1.80;1.70;;;21.80;48.60;;;;;;5047257;28;20453;-66
2024/01/22 12:01:09;;;;;;;1.77;1.67;;;21.70;48.60;;;;;;5048456;28;20453;-67
2024/01/22 12:03:38;;;;;;;2.13;1.57;;;21.70;48.50;;;;;;5038380;28;20453;-67
2024/01/22 12:06:08;;;;;;;1.67;1.30;;;21.70;48.50;;;;;;5050168;28;20583;-67
2024/01/22 12:08:36;;;;;;;1.80;1.70;;;21.70;48.50;;;;;;5037674;28;20544;-68
2024/01/22 12:11:09;;;;;;;1.93;1.83;;;21.70;48.60;;;;;;5040245;28;20483;-67
2024/01/22 12:13:41;;;;;;;1.67;1.57;;;21.70;48.60;;;;;;5045299;28;20829;-68
2024/01/22 12:16:14;;;;;;;2.70;1.80;;;21.70;48.60;;;;;;5032181;28;20460;-67
2024/01/22 12:18:43;;;;;;;2.33;1.90;;;21.70;48.60;;;;;;5039827;28;20464;-68
2024/01/22 12:21:13;;;;;;;1.90;1.80;;;21.80;48.60;;;;;;5059116;28;20464;-67
2024/01/22 12:23:41;;;;;;;2.17;1.40;;;21.80;48.60;;;;;;5036321;28;20549;-67
2024/01/22 12:26:14;;;;;;;1.60;1.50;;;21.90;48.60;;;;;;5031174;28;20500;-67
2024/01/22 12:28:44;;;;;;;1.43;1.30;;;21.90;48.60;;;;;;5039425;28;20446;-67
2024/01/22 12:31:13;;;;;;;1.17;1.07;;;22.00;48.50;;;;;;5043218;28;21774;-67
2024/01/22 12:33:41;;;;;;;2.23;2.00;;;22.00;48.40;;;;;;5042603;28;20462;-67
2024/01/22 12:36:16;;;;;;;2.00;1.63;;;22.00;48.40;;;;;;5034322;28;20496;-67
2024/01/22 12:38:50;;;;;;;2.10;1.77;;;22.00;48.20;;;;;;5039176;28;20932;-67
2024/01/22 12:41:19;;;;;;;1.70;1.60;;;22.00;48.10;;;;;;5039243;28;20462;-67
2024/01/22 12:43:50;;;;;;;1.93;1.67;;;22.00;48.20;;;;;;5049855;28;20454;-67
2024/01/22 12:46:19;;;;;;;4.03;2.07;;;22.00;48.30;;;;;;5049286;28;20859;-67
2024/01/22 12:48:49;;;;;;;1.83;1.73;;;22.00;48.40;;;;;;5051771;28;20540;-67
2024/01/22 12:51:24;;;;;;;1.80;1.70;;;21.90;48.20;;;;;;5047316;28;21056;-67
2024/01/22 12:53:53;;;;;;;1.67;1.57;;;21.80;48.30;;;;;;5060995;28;20466;-67
2024/01/22 12:56:21;;;;;;;2.27;1.53;;;21.80;48.40;;;;;;5056721;28;20969;-67
2024/01/22 12:58:52;;;;;;;1.80;1.70;;;21.80;48.60;;;;;;5055726;28;20461;-67